sensor_id;sensor_type;location;lat;lon;timestamp;pressure;altitude;pressure_sealevel;temperature;humidity
78685;BME280;68002;52.310;6.990;2023-05-10T00:01:05;100382.09;;;13.98;90.03
78685;BME280;68002;52.310;6.990;2023-05-10T00:03:30;100379.41;;;13.98;89.60
78685;BME280;68002;52.310;6.990;2023-05-10T00:05:55;100383.81;;;13.99;89.35
78685;BME280;68002;52.310;6.990;2023-05-10T00:08:21;100391.03;;;13.98;89.48
78685;BME280;68002;52.310;6.990;2023-05-10T00:10:46;100386.31;;;14.00;89.42
78685;BME280;68002;52.310;6.990;2023-05-10T00:13:11;100382.78;;;14.00;89.29
78685;BME280;68002;52.310;6.990;2023-05-10T00:15:36;100383.13;;;13.97;88.76
78685;BME280;68002;52.310;6.990;2023-05-10T00:18:02;100390.72;;;13.93;88.58
78685;BME280;68002;52.310;6.990;2023-05-10T00:20:27;100392.06;;;13.89;88.79
78685;BME280;68002;52.310;6.990;2023-05-10T00:22:52;100392.41;;;13.78;88.12
78685;BME280;68002;52.310;6.990;2023-05-10T00:25:17;100395.41;;;13.75;87.61
78685;BME280;68002;52.310;6.990;2023-05-10T00:27:43;100386.34;;;13.68;87.07
78685;BME280;68002;52.310;6.990;2023-05-10T00:30:08;100399.47;;;13.63;86.98
78685;BME280;68002;52.310;6.990;2023-05-10T00:32:33;100394.78;;;13.49;88.01
78685;BME280;68002;52.310;6.990;2023-05-10T00:34:59;100396.13;;;13.45;88.11
78685;BME280;68002;52.310;6.990;2023-05-10T00:37:24;100391.75;;;13.44;88.03
78685;BME280;68002;52.310;6.990;2023-05-10T00:39:49;100396.81;;;13.31;88.23
78685;BME280;68002;52.310;6.990;2023-05-10T00:42:14;100388.75;;;13.31;87.78
78685;BME280;68002;52.310;6.990;2023-05-10T00:44:40;100396.44;;;13.26;88.57
78685;BME280;68002;52.310;6.990;2023-05-10T00:47:05;100396.44;;;13.26;87.82
78685;BME280;68002;52.310;6.990;2023-05-10T00:49:30;100385.03;;;13.16;89.84
78685;BME280;68002;52.310;6.990;2023-05-10T00:51:56;100391.91;;;13.19;89.29
78685;BME280;68002;52.310;6.990;2023-05-10T00:54:21;100394.44;;;13.20;88.98
78685;BME280;68002;52.310;6.990;2023-05-10T00:56:46;100399.47;;;13.23;88.38
78685;BME280;68002;52.310;6.990;2023-05-10T00:59:11;100387.56;;;13.18;88.52
78685;BME280;68002;52.310;6.990;2023-05-10T01:01:37;100386.72;;;13.09;88.95
78685;BME280;68002;52.310;6.990;2023-05-10T01:04:02;100392.75;;;13.11;88.51
78685;BME280;68002;52.310;6.990;2023-05-10T01:06:28;100390.72;;;13.13;88.45
78685;BME280;68002;52.310;6.990;2023-05-10T01:08:53;100393.91;;;13.08;88.40
78685;BME280;68002;52.310;6.990;2023-05-10T01:11:18;100395.94;;;13.06;88.39
78685;BME280;68002;52.310;6.990;2023-05-10T01:13:49;100392.75;;;13.03;88.73
78685;BME280;68002;52.310;6.990;2023-05-10T01:16:17;100395.56;;;13.01;88.94
78685;BME280;68002;52.310;6.990;2023-05-10T01:18:43;100384.81;;;13.01;89.67
78685;BME280;68002;52.310;6.990;2023-05-10T01:21:17;100395.75;;;13.08;89.83
78685;BME280;68002;52.310;6.990;2023-05-10T01:24:06;100400.16;;;13.09;89.05
78685;BME280;68002;52.310;6.990;2023-05-10T01:27:02;100398.44;;;13.08;89.10
78685;BME280;68002;52.310;6.990;2023-05-10T01:35:06;100392.41;;;13.06;88.83
78685;BME280;68002;52.310;6.990;2023-05-10T01:40:52;100405.13;;;12.96;89.55
78685;BME280;68002;52.310;6.990;2023-05-10T01:43:22;100405.13;;;12.96;89.85
78685;BME280;68002;52.310;6.990;2023-05-10T01:46:14;100392.34;;;12.90;89.23
78685;BME280;68002;52.310;6.990;2023-05-10T01:48:48;100394.84;;;12.91;89.36
78685;BME280;68002;52.310;6.990;2023-05-10T01:51:21;100392.84;;;12.93;89.36
78685;BME280;68002;52.310;6.990;2023-05-10T01:53:48;100399.91;;;12.94;89.49
78685;BME280;68002;52.310;6.990;2023-05-10T01:56:14;100402.44;;;12.96;89.58
78685;BME280;68002;52.310;6.990;2023-05-10T01:58:43;100399.56;;;12.89;89.42
78685;BME280;68002;52.310;6.990;2023-05-10T02:01:09;100397.72;;;12.90;89.80
78685;BME280;68002;52.310;6.990;2023-05-10T02:03:35;100390.00;;;12.87;89.79
78685;BME280;68002;52.310;6.990;2023-05-10T02:06:03;100388.47;;;12.84;89.75
78685;BME280;68002;52.310;6.990;2023-05-10T02:08:30;100388.31;;;12.86;89.95
78685;BME280;68002;52.310;6.990;2023-05-10T02:10:57;100402.41;;;12.88;90.28
78685;BME280;68002;52.310;6.990;2023-05-10T02:13:24;100401.91;;;12.84;90.01
78685;BME280;68002;52.310;6.990;2023-05-10T02:15:51;100395.00;;;12.82;89.88
78685;BME280;68002;52.310;6.990;2023-05-10T02:18:18;100403.59;;;12.85;89.33
78685;BME280;68002;52.310;6.990;2023-05-10T02:20:45;100397.69;;;12.82;90.05
78685;BME280;68002;52.310;6.990;2023-05-10T02:23:11;100400.91;;;12.85;90.12
78685;BME280;68002;52.310;6.990;2023-05-10T02:25:37;100409.09;;;12.84;90.12
78685;BME280;68002;52.310;6.990;2023-05-10T02:28:04;100413.13;;;12.80;90.02
78685;BME280;68002;52.310;6.990;2023-05-10T02:30:32;100408.06;;;12.77;90.13
78685;BME280;68002;52.310;6.990;2023-05-10T02:32:59;100414.28;;;12.77;90.10
78685;BME280;68002;52.310;6.990;2023-05-10T02:35:26;100406.59;;;12.74;90.77
78685;BME280;68002;52.310;6.990;2023-05-10T02:37:52;100418.66;;;12.78;89.87
78685;BME280;68002;52.310;6.990;2023-05-10T02:40:19;100414.78;;;12.73;90.42
78685;BME280;68002;52.310;6.990;2023-05-10T02:42:47;100413.44;;;12.77;90.49
78685;BME280;68002;52.310;6.990;2023-05-10T02:45:19;100415.16;;;12.78;90.86
78685;BME280;68002;52.310;6.990;2023-05-10T02:47:45;100414.97;;;12.79;91.00
78685;BME280;68002;52.310;6.990;2023-05-10T02:50:10;100411.44;;;12.79;90.19
78685;BME280;68002;52.310;6.990;2023-05-10T02:52:42;100409.09;;;12.76;90.40
78685;BME280;68002;52.310;6.990;2023-05-10T02:55:11;100403.38;;;12.71;89.56
78685;BME280;68002;52.310;6.990;2023-05-10T02:57:41;100414.13;;;12.71;89.92
78685;BME280;68002;52.310;6.990;2023-05-10T03:00:08;100415.97;;;12.70;90.92
78685;BME280;68002;52.310;6.990;2023-05-10T03:02:33;100419.63;;;12.69;91.00
78685;BME280;68002;52.310;6.990;2023-05-10T03:04:58;100404.88;;;12.65;90.72
78685;BME280;68002;52.310;6.990;2023-05-10T03:07:24;100416.44;;;12.66;90.22
78685;BME280;68002;52.310;6.990;2023-05-10T03:09:49;100409.06;;;12.68;90.45
78685;BME280;68002;52.310;6.990;2023-05-10T03:15:28;100422.16;;;12.71;90.60
78685;BME280;68002;52.310;6.990;2023-05-10T03:18:18;100416.13;;;12.69;89.83
78685;BME280;68002;52.310;6.990;2023-05-10T03:20:48;100413.28;;;12.70;89.88
78685;BME280;68002;52.310;6.990;2023-05-10T03:23:40;100412.94;;;12.73;90.56
78685;BME280;68002;52.310;6.990;2023-05-10T03:26:07;100420.13;;;12.73;90.65
78685;BME280;68002;52.310;6.990;2023-05-10T03:28:34;100420.47;;;12.70;89.81
78685;BME280;68002;52.310;6.990;2023-05-10T03:30:59;100419.78;;;12.68;90.54
78685;BME280;68002;52.310;6.990;2023-05-10T03:33:25;100419.97;;;12.66;89.68
78685;BME280;68002;52.310;6.990;2023-05-10T03:35:50;100425.00;;;12.69;89.09
78685;BME280;68002;52.310;6.990;2023-05-10T03:38:15;100407.34;;;12.59;90.24
78685;BME280;68002;52.310;6.990;2023-05-10T03:40:40;100425.31;;;12.66;90.07
78685;BME280;68002;52.310;6.990;2023-05-10T03:43:06;100431.72;;;12.65;89.91
78685;BME280;68002;52.310;6.990;2023-05-10T03:45:31;100427.66;;;12.61;90.07
78685;BME280;68002;52.310;6.990;2023-05-10T03:47:57;100434.91;;;12.69;89.95
78685;BME280;68002;52.310;6.990;2023-05-10T03:50:23;100435.72;;;12.61;90.46
78685;BME280;68002;52.310;6.990;2023-05-10T03:52:48;100439.22;;;12.62;90.24
78685;BME280;68002;52.310;6.990;2023-05-10T03:55:14;100437.22;;;12.64;91.07
78685;BME280;68002;52.310;6.990;2023-05-10T03:57:39;100435.38;;;12.64;90.77
78685;BME280;68002;52.310;6.990;2023-05-10T04:00:05;100443.94;;;12.68;90.54
78685;BME280;68002;52.310;6.990;2023-05-10T04:02:30;100444.97;;;12.67;90.92
78685;BME280;68002;52.310;6.990;2023-05-10T04:04:55;100441.25;;;12.68;91.36
78685;BME280;68002;52.310;6.990;2023-05-10T04:07:21;100443.66;;;12.71;90.31
78685;BME280;68002;52.310;6.990;2023-05-10T04:09:46;100445.94;;;12.66;90.99
78685;BME280;68002;52.310;6.990;2023-05-10T04:12:11;100448.31;;;12.69;91.28
78685;BME280;68002;52.310;6.990;2023-05-10T04:14:37;100449.31;;;12.68;91.50
78685;BME280;68002;52.310;6.990;2023-05-10T04:17:02;100448.13;;;12.62;90.63
78685;BME280;68002;52.310;6.990;2023-05-10T04:19:30;100460.38;;;12.65;90.54
78685;BME280;68002;52.310;6.990;2023-05-10T04:21:56;100457.53;;;12.66;90.83
78685;BME280;68002;52.310;6.990;2023-05-10T04:24:21;100463.91;;;12.65;91.79
78685;BME280;68002;52.310;6.990;2023-05-10T04:26:46;100448.63;;;12.66;91.09
78685;BME280;68002;52.310;6.990;2023-05-10T04:29:11;100452.84;;;12.68;91.68
78685;BME280;68002;52.310;6.990;2023-05-10T04:31:37;100451.81;;;12.69;91.85
78685;BME280;68002;52.310;6.990;2023-05-10T04:34:02;100455.53;;;12.68;91.99
78685;BME280;68002;52.310;6.990;2023-05-10T04:36:27;100457.06;;;12.71;91.49
78685;BME280;68002;52.310;6.990;2023-05-10T04:38:52;100450.16;;;12.68;91.97
78685;BME280;68002;52.310;6.990;2023-05-10T04:41:17;100449.66;;;12.73;92.17
78685;BME280;68002;52.310;6.990;2023-05-10T04:43:43;100455.91;;;12.81;91.51
78685;BME280;68002;52.310;6.990;2023-05-10T04:46:08;100463.28;;;12.79;91.90
78685;BME280;68002;52.310;6.990;2023-05-10T04:48:33;100454.72;;;12.84;90.93
78685;BME280;68002;52.310;6.990;2023-05-10T04:50:58;100464.66;;;12.83;91.87
78685;BME280;68002;52.310;6.990;2023-05-10T04:53:24;100460.09;;;12.84;91.63
78685;BME280;68002;52.310;6.990;2023-05-10T04:55:49;100470.88;;;12.92;91.66
78685;BME280;68002;52.310;6.990;2023-05-10T04:58:14;100468.88;;;12.94;91.11
78685;BME280;68002;52.310;6.990;2023-05-10T05:00:39;100469.56;;;12.96;91.01
78685;BME280;68002;52.310;6.990;2023-05-10T05:03:05;100466.03;;;12.95;91.15
78685;BME280;68002;52.310;6.990;2023-05-10T05:05:30;100477.28;;;12.99;91.02
78685;BME280;68002;52.310;6.990;2023-05-10T05:07:55;100476.81;;;13.03;91.15
78685;BME280;68002;52.310;6.990;2023-05-10T05:10:21;100476.13;;;13.01;91.59
78685;BME280;68002;52.310;6.990;2023-05-10T05:12:46;100480.50;;;13.02;91.09
78685;BME280;68002;52.310;6.990;2023-05-10T05:15:11;100482.88;;;13.05;91.62
78685;BME280;68002;52.310;6.990;2023-05-10T05:17:36;100486.22;;;13.07;91.63
78685;BME280;68002;52.310;6.990;2023-05-10T05:20:02;100486.88;;;13.09;91.01
78685;BME280;68002;52.310;6.990;2023-05-10T05:22:28;100491.38;;;13.01;91.23
78685;BME280;68002;52.310;6.990;2023-05-10T05:24:54;100486.19;;;12.99;91.91
78685;BME280;68002;52.310;6.990;2023-05-10T05:27:19;100493.75;;;13.04;91.33
78685;BME280;68002;52.310;6.990;2023-05-10T05:29:44;100487.22;;;13.06;91.63
78685;BME280;68002;52.310;6.990;2023-05-10T05:32:09;100486.56;;;13.04;91.28
78685;BME280;68002;52.310;6.990;2023-05-10T05:34:34;100493.09;;;13.10;91.99
78685;BME280;68002;52.310;6.990;2023-05-10T05:37:00;100490.59;;;13.08;91.82
78685;BME280;68002;52.310;6.990;2023-05-10T05:39:25;100495.84;;;13.18;91.65
78685;BME280;68002;52.310;6.990;2023-05-10T05:41:50;100491.78;;;13.14;91.04
78685;BME280;68002;52.310;6.990;2023-05-10T05:44:15;100480.84;;;13.07;91.16
78685;BME280;68002;52.310;6.990;2023-05-10T05:46:40;100503.88;;;13.18;91.92
78685;BME280;68002;52.310;6.990;2023-05-10T05:49:06;100511.59;;;13.21;90.98
78685;BME280;68002;52.310;6.990;2023-05-10T05:51:31;100514.97;;;13.23;90.77
78685;BME280;68002;52.310;6.990;2023-05-10T05:53:56;100506.25;;;13.21;91.30
78685;BME280;68002;52.310;6.990;2023-05-10T05:56:21;100506.56;;;13.26;90.67
78685;BME280;68002;52.310;6.990;2023-05-10T05:58:46;100515.00;;;13.31;90.68
78685;BME280;68002;52.310;6.990;2023-05-10T06:01:12;100509.47;;;13.33;90.43
78685;BME280;68002;52.310;6.990;2023-05-10T06:03:37;100514.16;;;13.39;90.40
78685;BME280;68002;52.310;6.990;2023-05-10T06:06:02;100523.56;;;13.43;89.71
78685;BME280;68002;52.310;6.990;2023-05-10T06:08:27;100522.25;;;13.47;90.09
78685;BME280;68002;52.310;6.990;2023-05-10T06:10:53;100520.06;;;13.50;89.94
78685;BME280;68002;52.310;6.990;2023-05-10T06:13:18;100519.75;;;13.53;89.54
78685;BME280;68002;52.310;6.990;2023-05-10T06:15:43;100525.13;;;13.53;89.85
78685;BME280;68002;52.310;6.990;2023-05-10T06:18:08;100515.69;;;13.57;89.13
78685;BME280;68002;52.310;6.990;2023-05-10T06:20:33;100522.44;;;13.53;89.89
78685;BME280;68002;52.310;6.990;2023-05-10T06:22:59;100518.22;;;13.51;90.25
78685;BME280;68002;52.310;6.990;2023-05-10T06:25:24;100516.69;;;13.48;89.69
78685;BME280;68002;52.310;6.990;2023-05-10T06:27:49;100522.75;;;13.50;89.49
78685;BME280;68002;52.310;6.990;2023-05-10T06:30:15;100527.13;;;13.51;90.23
78685;BME280;68002;52.310;6.990;2023-05-10T06:32:41;100537.72;;;13.53;89.61
78685;BME280;68002;52.310;6.990;2023-05-10T06:35:06;100535.88;;;13.53;89.01
78685;BME280;68002;52.310;6.990;2023-05-10T06:37:32;100537.88;;;13.59;89.25
78685;BME280;68002;52.310;6.990;2023-05-10T06:39:57;100537.72;;;13.61;89.27
78685;BME280;68002;52.310;6.990;2023-05-10T06:42:22;100543.59;;;13.64;88.70
78685;BME280;68002;52.310;6.990;2023-05-10T06:44:47;100541.91;;;13.63;89.11
78685;BME280;68002;52.310;6.990;2023-05-10T06:47:13;100543.59;;;13.64;88.91
78685;BME280;68002;52.310;6.990;2023-05-10T06:49:38;100543.28;;;13.67;88.71
78685;BME280;68002;52.310;6.990;2023-05-10T06:52:03;100543.44;;;13.74;88.44
78685;BME280;68002;52.310;6.990;2023-05-10T06:54:28;100548.13;;;13.72;88.79
78685;BME280;68002;52.310;6.990;2023-05-10T06:56:53;100555.38;;;13.79;89.38
78685;BME280;68002;52.310;6.990;2023-05-10T06:59:19;100550.84;;;13.80;88.09
78685;BME280;68002;52.310;6.990;2023-05-10T07:01:44;100549.31;;;13.77;88.48
78685;BME280;68002;52.310;6.990;2023-05-10T07:04:09;100561.25;;;13.83;88.56
78685;BME280;68002;52.310;6.990;2023-05-10T07:06:34;100569.50;;;13.81;88.85
78685;BME280;68002;52.310;6.990;2023-05-10T07:09:00;100573.00;;;13.74;88.64
78685;BME280;68002;52.310;6.990;2023-05-10T07:11:25;100575.22;;;13.78;87.90
78685;BME280;68002;52.310;6.990;2023-05-10T07:13:50;100568.34;;;13.84;88.07
78685;BME280;68002;52.310;6.990;2023-05-10T07:16:16;100565.13;;;13.80;87.94
78685;BME280;68002;52.310;6.990;2023-05-10T07:18:41;100565.81;;;13.82;88.43
78685;BME280;68002;52.310;6.990;2023-05-10T07:21:06;100562.63;;;13.87;88.30
78685;BME280;68002;52.310;6.990;2023-05-10T07:23:31;100571.69;;;13.94;88.03
78685;BME280;68002;52.310;6.990;2023-05-10T07:25:56;100573.03;;;13.98;87.14
78685;BME280;68002;52.310;6.990;2023-05-10T07:28:22;100573.53;;;14.01;87.26
78685;BME280;68002;52.310;6.990;2023-05-10T07:30:47;100574.19;;;13.95;86.85
78685;BME280;68002;52.310;6.990;2023-05-10T07:33:14;100574.56;;;14.08;86.56
78685;BME280;68002;52.310;6.990;2023-05-10T07:35:39;100571.88;;;14.08;86.51
78685;BME280;68002;52.310;6.990;2023-05-10T07:38:04;100572.72;;;14.17;87.17
78685;BME280;68002;52.310;6.990;2023-05-10T07:40:30;100574.59;;;14.41;86.42
78685;BME280;68002;52.310;6.990;2023-05-10T07:42:55;100579.56;;;14.68;86.09
78685;BME280;68002;52.310;6.990;2023-05-10T07:45:21;100581.22;;;14.85;85.91
78685;BME280;68002;52.310;6.990;2023-05-10T07:47:46;100573.47;;;14.90;84.50
78685;BME280;68002;52.310;6.990;2023-05-10T07:50:11;100578.19;;;14.88;84.16
78685;BME280;68002;52.310;6.990;2023-05-10T07:52:36;100584.59;;;14.87;83.40
78685;BME280;68002;52.310;6.990;2023-05-10T07:55:02;100596.03;;;14.81;83.83
78685;BME280;68002;52.310;6.990;2023-05-10T07:57:27;100598.56;;;14.82;84.20
78685;BME280;68002;52.310;6.990;2023-05-10T07:59:52;100609.81;;;14.86;85.05
78685;BME280;68002;52.310;6.990;2023-05-10T08:02:17;100605.97;;;14.88;83.09
78685;BME280;68002;52.310;6.990;2023-05-10T08:04:43;100605.63;;;14.83;84.29
78685;BME280;68002;52.310;6.990;2023-05-10T08:07:08;100607.13;;;14.86;83.58
78685;BME280;68002;52.310;6.990;2023-05-10T08:09:33;100613.53;;;14.85;83.41
78685;BME280;68002;52.310;6.990;2023-05-10T08:11:58;100610.00;;;14.84;82.74
78685;BME280;68002;52.310;6.990;2023-05-10T08:14:23;100613.91;;;14.74;83.13
78685;BME280;68002;52.310;6.990;2023-05-10T08:16:49;100616.59;;;14.66;83.61
78685;BME280;68002;52.310;6.990;2023-05-10T08:19:14;100624.53;;;14.59;83.58
78685;BME280;68002;52.310;6.990;2023-05-10T08:21:39;100620.97;;;14.51;83.84
78685;BME280;68002;52.310;6.990;2023-05-10T08:24:04;100620.16;;;14.50;84.01
78685;BME280;68002;52.310;6.990;2023-05-10T08:26:30;100626.88;;;14.46;84.61
78685;BME280;68002;52.310;6.990;2023-05-10T08:28:55;100627.72;;;14.47;84.16
78685;BME280;68002;52.310;6.990;2023-05-10T08:31:21;100632.09;;;14.40;84.45
78685;BME280;68002;52.310;6.990;2023-05-10T08:33:46;100632.63;;;14.35;84.55
78685;BME280;68002;52.310;6.990;2023-05-10T08:36:11;100632.63;;;14.35;84.59
78685;BME280;68002;52.310;6.990;2023-05-10T08:38:37;100638.00;;;14.35;84.65
78685;BME280;68002;52.310;6.990;2023-05-10T08:41:02;100632.94;;;14.32;84.67
78685;BME280;68002;52.310;6.990;2023-05-10T08:43:28;100634.75;;;14.24;84.71
78685;BME280;68002;52.310;6.990;2023-05-10T08:45:54;100640.81;;;14.26;85.22
78685;BME280;68002;52.310;6.990;2023-05-10T08:48:23;100647.22;;;14.25;85.57
78685;BME280;68002;52.310;6.990;2023-05-10T08:50:48;100643.97;;;14.21;85.51
78685;BME280;68002;52.310;6.990;2023-05-10T08:53:17;100652.75;;;14.15;85.60
78685;BME280;68002;52.310;6.990;2023-05-10T08:55:43;100649.88;;;14.08;85.98
78685;BME280;68002;52.310;6.990;2023-05-10T08:58:09;100648.69;;;14.03;85.55
78685;BME280;68002;52.310;6.990;2023-05-10T09:00:35;100654.06;;;14.03;86.22
78685;BME280;68002;52.310;6.990;2023-05-10T09:03:03;100659.44;;;14.03;85.85
78685;BME280;68002;52.310;6.990;2023-05-10T09:05:29;100660.47;;;14.02;86.30
78685;BME280;68002;52.310;6.990;2023-05-10T09:07:54;100655.91;;;13.94;86.45
78685;BME280;68002;52.310;6.990;2023-05-10T09:10:20;100662.81;;;14.05;86.80
78685;BME280;68002;52.310;6.990;2023-05-10T09:12:46;100662.28;;;14.01;86.47
78685;BME280;68002;52.310;6.990;2023-05-10T09:15:14;100661.13;;;14.04;86.14
78685;BME280;68002;52.310;6.990;2023-05-10T09:17:40;100668.88;;;14.07;86.50
78685;BME280;68002;52.310;6.990;2023-05-10T09:20:07;100679.44;;;14.08;86.16
78685;BME280;68002;52.310;6.990;2023-05-10T09:22:35;100675.44;;;14.12;86.34
78685;BME280;68002;52.310;6.990;2023-05-10T09:25:06;100680.16;;;14.19;86.45
78685;BME280;68002;52.310;6.990;2023-05-10T09:27:32;100688.06;;;14.20;86.30
78685;BME280;68002;52.310;6.990;2023-05-10T09:29:57;100687.94;;;14.30;86.21
78685;BME280;68002;52.310;6.990;2023-05-10T09:32:35;100707.63;;;14.46;85.08
78685;BME280;68002;52.310;6.990;2023-05-10T09:35:06;100690.97;;;14.59;85.76
78685;BME280;68002;52.310;6.990;2023-05-10T09:37:32;100682.38;;;14.71;84.85
78685;BME280;68002;52.310;6.990;2023-05-10T09:39:57;100696.69;;;14.80;83.45
78685;BME280;68002;52.310;6.990;2023-05-10T09:42:22;100689.09;;;14.83;83.37
78685;BME280;68002;52.310;6.990;2023-05-10T09:44:47;100697.34;;;14.90;83.56
78685;BME280;68002;52.310;6.990;2023-05-10T09:47:17;100697.31;;;14.98;82.59
78685;BME280;68002;52.310;6.990;2023-05-10T09:49:42;100686.22;;;15.01;82.44
78685;BME280;68002;52.310;6.990;2023-05-10T09:52:07;100695.66;;;15.05;82.36
78685;BME280;68002;52.310;6.990;2023-05-10T09:54:33;100688.56;;;15.12;82.56
78685;BME280;68002;52.310;6.990;2023-05-10T09:56:59;100699.16;;;15.22;82.96
78685;BME280;68002;52.310;6.990;2023-05-10T09:59:26;100703.03;;;15.27;82.06
78685;BME280;68002;52.310;6.990;2023-05-10T10:01:52;100707.25;;;15.22;80.77
78685;BME280;68002;52.310;6.990;2023-05-10T10:04:19;100699.66;;;15.17;79.87
78685;BME280;68002;52.310;6.990;2023-05-10T10:06:45;100713.81;;;15.11;81.09
78685;BME280;68002;52.310;6.990;2023-05-10T10:09:10;100712.50;;;15.07;81.72
78685;BME280;68002;52.310;6.990;2023-05-10T10:11:36;100709.81;;;15.07;82.00
78685;BME280;68002;52.310;6.990;2023-05-10T10:14:02;100713.00;;;15.10;82.20
78685;BME280;68002;52.310;6.990;2023-05-10T10:16:29;100715.16;;;15.15;80.68
78685;BME280;68002;52.310;6.990;2023-05-10T10:18:55;100717.19;;;15.13;80.31
78685;BME280;68002;52.310;6.990;2023-05-10T10:21:21;100720.91;;;15.12;80.30
78685;BME280;68002;52.310;6.990;2023-05-10T10:23:46;100715.47;;;15.20;80.35
78685;BME280;68002;52.310;6.990;2023-05-10T10:26:12;100717.66;;;15.25;79.10
78685;BME280;68002;52.310;6.990;2023-05-10T10:28:51;100719.19;;;15.19;79.33
78685;BME280;68002;52.310;6.990;2023-05-10T10:34:08;100730.38;;;15.63;77.00
78685;BME280;68002;52.310;6.990;2023-05-10T10:36:43;100716.66;;;15.80;76.40
78685;BME280;68002;52.310;6.990;2023-05-10T10:39:10;100722.72;;;15.82;76.02
78685;BME280;68002;52.310;6.990;2023-05-10T10:41:37;100714.56;;;15.98;75.35
78685;BME280;68002;52.310;6.990;2023-05-10T10:57:24;100714.06;;;18.10;71.19
78685;BME280;68002;52.310;6.990;2023-05-10T10:59:49;100711.81;;;18.14;69.29
78685;BME280;68002;52.310;6.990;2023-05-10T11:02:34;100709.94;;;18.14;69.45
78685;BME280;68002;52.310;6.990;2023-05-10T11:04:59;100712.41;;;18.09;67.03
78685;BME280;68002;52.310;6.990;2023-05-10T11:07:24;100716.34;;;17.92;66.17
78685;BME280;68002;52.310;6.990;2023-05-10T11:09:50;100708.06;;;17.79;68.10
78685;BME280;68002;52.310;6.990;2023-05-10T11:12:15;100714.41;;;17.71;66.69
78685;BME280;68002;52.310;6.990;2023-05-10T11:14:40;100706.28;;;17.86;67.22
78685;BME280;68002;52.310;6.990;2023-05-10T11:17:27;100715.88;;;17.88;68.41
78685;BME280;68002;52.310;6.990;2023-05-10T11:20:22;100718.34;;;18.55;66.01
78685;BME280;68002;52.310;6.990;2023-05-10T11:22:54;100721.03;;;18.97;63.97
78685;BME280;68002;52.310;6.990;2023-05-10T11:25:19;100711.16;;;19.17;64.60
78685;BME280;68002;52.310;6.990;2023-05-10T11:27:47;100722.94;;;19.58;65.03
78685;BME280;68002;52.310;6.990;2023-05-10T11:30:13;100719.88;;;19.68;61.65
78685;BME280;68002;52.310;6.990;2023-05-10T11:32:39;100728.47;;;19.78;60.40
78685;BME280;68002;52.310;6.990;2023-05-10T11:35:11;100722.81;;;19.73;60.47
78685;BME280;68002;52.310;6.990;2023-05-10T11:37:37;100715.81;;;19.91;58.96
78685;BME280;68002;52.310;6.990;2023-05-10T11:40:03;100725.16;;;19.82;58.15
78685;BME280;68002;52.310;6.990;2023-05-10T11:42:29;100727.81;;;19.69;57.97
78685;BME280;68002;52.310;6.990;2023-05-10T11:44:54;100727.16;;;19.67;58.66
78685;BME280;68002;52.310;6.990;2023-05-10T11:47:19;100737.38;;;19.65;57.72
78685;BME280;68002;52.310;6.990;2023-05-10T11:49:46;100739.44;;;19.57;57.87
78685;BME280;68002;52.310;6.990;2023-05-10T11:52:11;100739.28;;;19.65;58.67
78685;BME280;68002;52.310;6.990;2023-05-10T11:54:36;100741.97;;;20.05;59.84
78685;BME280;68002;52.310;6.990;2023-05-10T11:57:02;100743.09;;;19.83;58.60
78685;BME280;68002;52.310;6.990;2023-05-10T11:59:28;100746.94;;;19.61;58.57
78685;BME280;68002;52.310;6.990;2023-05-10T12:01:53;100751.63;;;19.40;57.84
78685;BME280;68002;52.310;6.990;2023-05-10T12:04:19;100753.09;;;19.21;57.53
78685;BME280;68002;52.310;6.990;2023-05-10T12:06:44;100750.13;;;19.10;58.89
78685;BME280;68002;52.310;6.990;2023-05-10T12:09:10;100755.97;;;19.13;58.35
78685;BME280;68002;52.310;6.990;2023-05-10T12:11:39;100757.31;;;19.24;58.52
78685;BME280;68002;52.310;6.990;2023-05-10T12:14:05;100761.59;;;19.12;59.16
78685;BME280;68002;52.310;6.990;2023-05-10T12:16:30;100761.88;;;19.23;58.38
78685;BME280;68002;52.310;6.990;2023-05-10T12:18:58;100763.50;;;19.39;57.92
78685;BME280;68002;52.310;6.990;2023-05-10T12:21:23;100756.84;;;19.14;58.13
78685;BME280;68002;52.310;6.990;2023-05-10T12:23:51;100758.97;;;18.76;60.62
78685;BME280;68002;52.310;6.990;2023-05-10T12:26:17;100771.28;;;18.57;61.37
78685;BME280;68002;52.310;6.990;2023-05-10T12:28:42;100765.44;;;18.39;61.37
78685;BME280;68002;52.310;6.990;2023-05-10T12:31:08;100777.38;;;18.09;62.50
78685;BME280;68002;52.310;6.990;2023-05-10T12:33:38;100782.50;;;17.89;63.29
78685;BME280;68002;52.310;6.990;2023-05-10T12:36:04;100776.56;;;17.79;64.03
78685;BME280;68002;52.310;6.990;2023-05-10T12:38:43;100777.41;;;17.80;64.40
78685;BME280;68002;52.310;6.990;2023-05-10T12:41:16;100780.09;;;17.80;64.32
78685;BME280;68002;52.310;6.990;2023-05-10T12:43:42;100772.91;;;17.72;64.13
78685;BME280;68002;52.310;6.990;2023-05-10T12:46:11;100784.47;;;17.66;64.51
78685;BME280;68002;52.310;6.990;2023-05-10T12:48:37;100781.84;;;17.73;63.79
78685;BME280;68002;52.310;6.990;2023-05-10T12:51:03;100780.94;;;17.80;62.98
78685;BME280;68002;52.310;6.990;2023-05-10T12:53:29;100782.69;;;17.88;62.08
78685;BME280;68002;52.310;6.990;2023-05-10T12:55:55;100784.75;;;18.00;62.10
78685;BME280;68002;52.310;6.990;2023-05-10T12:58:20;100781.09;;;18.08;61.65
78685;BME280;68002;52.310;6.990;2023-05-10T13:00:45;100780.41;;;18.21;60.99
78685;BME280;68002;52.310;6.990;2023-05-10T13:03:11;100787.22;;;18.17;60.93
78685;BME280;68002;52.310;6.990;2023-05-10T13:05:36;100798.72;;;18.19;60.33
78685;BME280;68002;52.310;6.990;2023-05-10T13:08:01;100794.63;;;18.08;60.97
78685;BME280;68002;52.310;6.990;2023-05-10T13:10:29;100792.22;;;17.98;61.51
78685;BME280;68002;52.310;6.990;2023-05-10T13:12:55;100795.03;;;17.90;60.62
78685;BME280;68002;52.310;6.990;2023-05-10T13:15:20;100786.16;;;17.82;61.83